createdAt,value
2023-01-30T00:01:25.776Z,8.48
2023-01-30T00:03:52.597Z,7.93
2023-01-30T00:06:20.048Z,9.05
2023-01-30T00:08:46.822Z,8.23
2023-01-30T00:11:15.174Z,8.18
2023-01-30T00:13:42.471Z,8.93
2023-01-30T00:16:09.893Z,9.48
2023-01-30T00:18:40.847Z,8.98
2023-01-30T00:21:09.484Z,8.35
2023-01-30T00:23:36.786Z,8.60
2023-01-30T00:26:04.879Z,9.48
2023-01-30T00:28:34.752Z,8.80
2023-01-30T00:31:01.673Z,9.30
2023-01-30T00:33:31.469Z,9.18
2023-01-30T00:35:58.323Z,8.55
2023-01-30T00:38:25.156Z,9.45
2023-01-30T00:40:51.815Z,9.00
2023-01-30T00:43:38.969Z,9.57
2023-01-30T00:46:30.706Z,9.70
2023-01-30T00:48:57.408Z,9.10
2023-01-30T00:51:24.169Z,8.45
2023-01-30T00:53:50.927Z,9.27
2023-01-30T00:56:17.638Z,9.40
2023-01-30T00:58:44.409Z,9.63
2023-01-30T01:01:11.463Z,9.48
2023-01-30T01:03:38.220Z,9.20
2023-01-30T01:06:05.323Z,9.52
2023-01-30T01:08:32.277Z,9.45
2023-01-30T01:10:58.966Z,9.80
2023-01-30T01:13:25.653Z,9.38
2023-01-30T01:15:52.322Z,9.05
2023-01-30T01:18:19.193Z,9.00
2023-01-30T01:20:46.997Z,8.95
2023-01-30T01:23:16.956Z,9.77
2023-01-30T01:25:43.718Z,9.93
2023-01-30T01:28:10.373Z,9.23
2023-01-30T01:30:38.142Z,9.52
2023-01-30T01:33:04.839Z,9.82
2023-01-30T01:35:31.552Z,9.68
2023-01-30T01:37:58.198Z,10.43
2023-01-30T01:40:43.631Z,10.52
2023-01-30T01:43:21.763Z,9.88
2023-01-30T01:46:10.478Z,11.10
2023-01-30T01:48:49.717Z,10.13
2023-01-30T01:51:21.185Z,11.15
2023-01-30T01:53:56.500Z,10.73
2023-01-30T01:56:23.334Z,10.15
2023-01-30T01:59:02.120Z,11.20
2023-01-30T02:01:29.032Z,10.57
2023-01-30T02:03:59.285Z,10.90
2023-01-30T02:06:25.976Z,11.10
2023-01-30T02:08:56.304Z,11.43
2023-01-30T02:11:41.903Z,10.95
2023-01-30T02:14:08.885Z,10.65
2023-01-30T02:16:37.331Z,10.70
2023-01-30T02:19:07.788Z,11.27
2023-01-30T02:22:07.710Z,11.20
2023-01-30T02:25:08.468Z,11.27
2023-01-30T02:27:44.321Z,10.60
2023-01-30T02:30:48.930Z,10.73
2023-01-30T02:33:28.393Z,11.40
2023-01-30T02:36:26.029Z,11.00
2023-01-30T02:39:08.748Z,11.65
2023-01-30T02:41:47.109Z,11.45
2023-01-30T02:44:38.794Z,11.68
2023-01-30T02:47:10.485Z,11.20
2023-01-30T02:49:49.590Z,11.48
2023-01-30T02:52:18.337Z,12.25
2023-01-30T02:54:45.870Z,12.07
2023-01-30T02:57:22.843Z,11.40
2023-01-30T02:59:55.996Z,11.95
2023-01-30T03:02:40.430Z,12.25
2023-01-30T03:05:48.535Z,12.50
2023-01-30T03:08:36.994Z,12.48
2023-01-30T03:11:06.668Z,12.00
2023-01-30T03:13:42.029Z,12.38
2023-01-30T03:16:12.903Z,12.77
2023-01-30T03:18:43.779Z,11.65
2023-01-30T03:21:11.571Z,11.90
2023-01-30T03:23:38.411Z,12.25
2023-01-30T03:26:06.666Z,11.82
2023-01-30T03:28:34.651Z,10.68
2023-01-30T03:31:01.598Z,10.98
2023-01-30T03:33:28.810Z,11.15
2023-01-30T03:36:01.856Z,12.57
2023-01-30T03:38:28.562Z,11.57
2023-01-30T03:40:55.245Z,12.10
2023-01-30T03:43:22.093Z,11.98
2023-01-30T03:45:48.832Z,10.70
2023-01-30T03:48:15.799Z,11.13
2023-01-30T03:50:45.482Z,11.50
2023-01-30T03:53:12.299Z,11.82
2023-01-30T03:55:39.440Z,10.93
2023-01-30T03:58:06.360Z,11.02
2023-01-30T04:00:33.901Z,10.38
2023-01-30T04:03:01.462Z,10.90
2023-01-30T04:05:28.296Z,11.88
2023-01-30T04:08:02.015Z,11.63
2023-01-30T04:10:28.825Z,11.05
2023-01-30T04:12:55.521Z,11.52
2023-01-30T04:15:22.921Z,11.20
2023-01-30T04:18:09.975Z,10.57
2023-01-30T04:20:49.448Z,11.52
2023-01-30T04:23:20.851Z,10.40
2023-01-30T04:25:48.749Z,11.32
2023-01-30T04:28:18.166Z,11.18
2023-01-30T04:30:45.435Z,10.98
2023-01-30T04:33:31.509Z,10.48
2023-01-30T04:36:00.168Z,10.93
2023-01-30T04:38:28.714Z,10.80
2023-01-30T04:40:56.655Z,10.43
2023-01-30T04:43:26.808Z,10.68
2023-01-30T04:46:12.022Z,10.50
2023-01-30T04:48:39.803Z,10.10
2023-01-30T04:51:06.540Z,10.93
2023-01-30T04:53:33.988Z,10.15
2023-01-30T04:56:01.364Z,10.93
2023-01-30T04:58:28.062Z,11.23
2023-01-30T05:00:55.026Z,11.48
2023-01-30T05:03:21.790Z,11.48
2023-01-30T05:05:48.776Z,11.43
2023-01-30T05:08:16.197Z,11.07
2023-01-30T05:10:42.864Z,11.82
2023-01-30T05:13:09.589Z,11.55
2023-01-30T05:15:36.231Z,11.75
2023-01-30T05:18:02.913Z,11.57
2023-01-30T05:20:32.637Z,11.52
2023-01-30T05:22:59.351Z,12.57
2023-01-30T05:25:26.050Z,12.82
2023-01-30T05:27:52.802Z,13.20
2023-01-30T05:30:19.573Z,12.77
2023-01-30T05:32:46.297Z,12.98
2023-01-30T05:35:12.983Z,12.68
2023-01-30T05:37:39.881Z,13.48
2023-01-30T05:40:13.112Z,13.63
2023-01-30T05:42:39.855Z,13.27
2023-01-30T05:45:07.118Z,13.45
2023-01-30T05:47:33.847Z,12.65
2023-01-30T05:50:00.520Z,13.38
2023-01-30T05:52:27.230Z,13.75
2023-01-30T05:54:53.953Z,13.07
2023-01-30T05:57:20.648Z,12.98
2023-01-30T05:59:47.316Z,12.82
2023-01-30T06:02:14.074Z,13.07
2023-01-30T06:04:40.735Z,13.75
2023-01-30T06:07:07.393Z,13.10
2023-01-30T06:09:34.090Z,13.68
2023-01-30T06:12:00.690Z,13.95
2023-01-30T06:14:27.382Z,13.60
2023-01-30T06:16:54.177Z,12.52
2023-01-30T06:19:20.839Z,13.20
2023-01-30T06:21:47.536Z,13.23
2023-01-30T06:24:17.222Z,12.32
2023-01-30T06:26:43.955Z,13.55
2023-01-30T06:29:10.847Z,12.55
2023-01-30T06:31:37.552Z,13.43
2023-01-30T06:34:04.277Z,12.38
2023-01-30T06:36:31.069Z,12.23
2023-01-30T06:38:57.689Z,12.32
2023-01-30T06:41:24.415Z,12.85
2023-01-30T06:43:51.149Z,12.55
2023-01-30T06:46:17.821Z,11.93
2023-01-30T06:48:44.461Z,12.02
2023-01-30T06:51:11.195Z,12.48
2023-01-30T06:53:40.897Z,11.13
2023-01-30T06:56:07.639Z,10.73
2023-01-30T06:58:34.281Z,10.32
2023-01-30T07:01:02.158Z,10.63
2023-01-30T07:03:28.813Z,10.27
2023-01-30T07:05:55.593Z,10.13
2023-01-30T07:08:24.198Z,11.65
2023-01-30T07:10:51.120Z,9.60
2023-01-30T07:13:17.940Z,10.50
2023-01-30T07:15:45.012Z,10.35
2023-01-30T07:18:11.685Z,9.40
2023-01-30T07:20:42.416Z,9.02
2023-01-30T07:23:09.132Z,9.32
2023-01-30T07:25:35.874Z,7.88
2023-01-30T07:28:03.015Z,7.60
2023-01-30T07:30:32.015Z,7.22
2023-01-30T07:33:00.162Z,6.22
2023-01-30T07:35:28.946Z,6.72
2023-01-30T07:37:55.729Z,5.68
2023-01-30T07:40:22.976Z,6.07
2023-01-30T07:43:06.691Z,5.82
2023-01-30T07:46:04.084Z,5.80
2023-01-30T07:48:30.781Z,5.45
2023-01-30T07:50:57.816Z,5.50
2023-01-30T07:53:24.503Z,5.55
2023-01-30T07:55:51.162Z,5.32
2023-01-30T07:58:17.960Z,5.50
2023-01-30T08:00:47.716Z,5.00
2023-01-30T08:03:15.904Z,6.00
2023-01-30T08:05:42.969Z,4.97
2023-01-30T08:08:09.913Z,5.25
2023-01-30T08:10:36.926Z,5.10
2023-01-30T08:13:04.749Z,5.20
2023-01-30T08:15:33.603Z,4.90
2023-01-30T08:18:00.481Z,4.15
2023-01-30T08:20:30.240Z,5.80
2023-01-30T08:22:58.869Z,4.35
2023-01-30T08:25:25.657Z,4.80
2023-01-30T08:27:52.805Z,4.85
2023-01-30T08:30:20.613Z,4.75
2023-01-30T08:32:47.569Z,4.97
2023-01-30T08:35:14.654Z,4.63
2023-01-30T08:37:42.001Z,4.53
2023-01-30T08:40:09.387Z,4.72
2023-01-30T08:42:36.221Z,4.15
2023-01-30T08:45:03.246Z,4.60
2023-01-30T08:47:31.030Z,3.92
2023-01-30T08:49:57.927Z,3.83
2023-01-30T08:52:24.701Z,3.83
2023-01-30T08:54:54.384Z,2.70
2023-01-30T08:57:21.099Z,2.60
2023-01-30T08:59:47.864Z,2.60
2023-01-30T09:02:14.600Z,2.40
2023-01-30T09:04:41.506Z,2.17
2023-01-30T09:07:08.537Z,2.40
2023-01-30T09:09:41.611Z,4.47
2023-01-30T09:12:08.378Z,2.90
2023-01-30T09:14:35.042Z,2.33
2023-01-30T09:17:01.806Z,2.15
2023-01-30T09:19:28.950Z,2.67
2023-01-30T09:21:55.925Z,3.72
2023-01-30T09:24:26.894Z,2.80
2023-01-30T09:26:54.448Z,3.00
2023-01-30T09:29:21.287Z,2.90
2023-01-30T09:31:51.014Z,2.70
2023-01-30T09:34:17.790Z,2.63
2023-01-30T09:36:44.618Z,2.70
2023-01-30T09:39:11.296Z,2.25
2023-01-30T09:42:07.381Z,2.42
2023-01-30T09:44:52.854Z,1.88
2023-01-30T09:47:38.785Z,1.42
2023-01-30T09:50:29.948Z,1.70
2023-01-30T09:53:05.588Z,1.33
2023-01-30T09:55:34.267Z,1.52
2023-01-30T09:58:01.176Z,1.20
2023-01-30T10:00:39.590Z,0.88
2023-01-30T10:03:18.753Z,1.65
2023-01-30T10:05:52.881Z,1.40
2023-01-30T10:08:45.851Z,1.10
2023-01-30T10:11:12.467Z,2.58
2023-01-30T10:13:45.152Z,1.05
2023-01-30T10:16:31.006Z,1.67
2023-01-30T10:19:03.358Z,1.38
2023-01-30T10:21:52.906Z,1.27
2023-01-30T10:24:35.791Z,1.30
2023-01-30T10:27:04.742Z,2.08
2023-01-30T10:29:34.218Z,2.10
2023-01-30T10:32:10.657Z,1.42
2023-01-30T10:34:39.338Z,1.52
2023-01-30T10:37:21.208Z,1.77
2023-01-30T10:40:03.277Z,1.60
2023-01-30T10:42:37.562Z,1.30
2023-01-30T10:45:21.318Z,1.58
2023-01-30T10:48:15.912Z,1.67
2023-01-30T10:50:50.769Z,1.52
2023-01-30T10:53:23.872Z,1.85
2023-01-30T10:56:19.795Z,1.67
2023-01-30T10:58:55.211Z,1.45
2023-01-30T11:01:29.255Z,2.40
2023-01-30T11:04:02.695Z,1.75
2023-01-30T11:06:29.518Z,2.55
2023-01-30T11:08:56.576Z,2.38
2023-01-30T11:11:30.496Z,1.90
2023-01-30T11:14:07.257Z,1.75
2023-01-30T11:16:43.522Z,2.40
2023-01-30T11:19:20.739Z,2.15
2023-01-30T11:21:57.010Z,2.10
2023-01-30T11:24:30.264Z,2.17
2023-01-30T11:27:17.287Z,1.83
2023-01-30T11:29:44.091Z,1.83
2023-01-30T11:32:26.245Z,1.77
2023-01-30T11:35:16.128Z,2.47
2023-01-30T11:37:44.442Z,2.55
2023-01-30T11:40:17.298Z,2.53
2023-01-30T11:42:46.908Z,2.45
2023-01-30T11:45:17.712Z,2.25
2023-01-30T11:47:57.953Z,2.50
2023-01-30T11:50:34.906Z,2.80
2023-01-30T11:53:05.310Z,2.75
2023-01-30T11:55:34.171Z,2.75
2023-01-30T11:58:08.915Z,2.05
2023-01-30T12:00:42.011Z,2.55
2023-01-30T12:03:14.783Z,1.90
2023-01-30T12:05:42.868Z,2.50
2023-01-30T12:08:31.100Z,2.38
2023-01-30T12:11:03.357Z,2.58
2023-01-30T12:13:38.587Z,2.50
2023-01-30T12:16:29.887Z,2.63
2023-01-30T12:19:06.337Z,2.80
2023-01-30T12:21:54.519Z,3.17
2023-01-30T12:24:27.029Z,2.63
2023-01-30T12:26:58.639Z,1.50
2023-01-30T12:29:31.862Z,2.38
2023-01-30T12:32:11.588Z,2.45
2023-01-30T12:34:38.513Z,2.28
2023-01-30T12:37:31.094Z,1.98
2023-01-30T12:40:31.680Z,1.73
2023-01-30T12:43:19.284Z,2.05
2023-01-30T12:46:23.697Z,2.17
2023-01-30T12:49:11.559Z,2.03
2023-01-30T12:51:54.675Z,2.47
2023-01-30T12:54:44.096Z,1.95
2023-01-30T12:57:13.956Z,1.67
2023-01-30T12:59:59.806Z,1.80
2023-01-30T13:02:41.085Z,1.27
2023-01-30T13:05:17.069Z,1.80
2023-01-30T13:08:33.634Z,1.60
2023-01-30T13:11:38.066Z,2.38
2023-01-30T13:14:10.734Z,2.20
2023-01-30T13:16:57.938Z,1.33
2023-01-30T13:19:31.234Z,1.27
2023-01-30T13:22:16.478Z,1.20
2023-01-30T13:25:02.195Z,1.85
2023-01-30T13:27:29.702Z,2.58
2023-01-30T13:29:58.414Z,1.60
2023-01-30T13:32:25.000Z,1.80
2023-01-30T13:34:56.409Z,1.40
2023-01-30T13:37:23.188Z,1.60
2023-01-30T13:39:53.155Z,2.03
2023-01-30T13:42:28.665Z,1.67
2023-01-30T13:44:57.228Z,2.00
2023-01-30T13:47:54.649Z,2.55
2023-01-30T13:50:51.045Z,3.42
2023-01-30T13:53:28.439Z,1.92
2023-01-30T13:55:57.523Z,1.77
2023-01-30T13:58:55.272Z,1.90
2023-01-30T14:01:23.228Z,1.92
2023-01-30T14:03:52.928Z,1.92
2023-01-30T14:06:37.814Z,1.75
2023-01-30T14:09:20.729Z,1.63
2023-01-30T14:11:49.751Z,1.40
2023-01-30T14:14:19.554Z,0.80
2023-01-30T14:16:49.040Z,0.50
2023-01-30T14:19:24.469Z,0.40
2023-01-30T14:21:56.633Z,0.70
2023-01-30T14:24:25.176Z,0.50
2023-01-30T14:26:54.539Z,0.80
2023-01-30T14:29:41.077Z,0.63
2023-01-30T14:32:19.210Z,0.50
2023-01-30T14:35:01.334Z,0.45
2023-01-30T14:37:41.631Z,0.60
2023-01-30T14:40:23.706Z,0.40
2023-01-30T14:43:12.406Z,0.68
2023-01-30T14:45:55.125Z,0.47
2023-01-30T14:48:54.373Z,0.40
2023-01-30T14:51:43.543Z,0.95
2023-01-30T14:54:25.389Z,0.77
2023-01-30T14:56:59.899Z,0.60
2023-01-30T14:59:34.502Z,0.98
2023-01-30T15:02:21.798Z,0.80
2023-01-30T15:05:08.515Z,0.70
2023-01-30T15:07:47.577Z,1.15
2023-01-30T15:10:33.900Z,1.23
2023-01-30T15:13:40.235Z,0.90
2023-01-30T15:16:16.354Z,1.10
2023-01-30T15:19:03.786Z,1.55
2023-01-30T15:21:46.041Z,1.42
2023-01-30T15:24:46.624Z,1.20
2023-01-30T15:27:15.479Z,1.40
2023-01-30T15:30:06.754Z,1.30
2023-01-30T15:32:33.566Z,1.15
2023-01-30T15:35:19.038Z,1.55
2023-01-30T15:37:54.864Z,1.40
2023-01-30T15:40:27.235Z,1.02
2023-01-30T15:43:13.814Z,1.42
2023-01-30T15:45:46.787Z,1.67
2023-01-30T15:48:27.039Z,1.13
2023-01-30T15:50:55.562Z,1.20
2023-01-30T15:53:37.085Z,1.27
2023-01-30T15:56:07.919Z,1.33
2023-01-30T15:58:38.412Z,1.92
2023-01-30T16:01:05.559Z,1.58
2023-01-30T16:03:36.786Z,2.00
2023-01-30T16:06:04.233Z,1.35
2023-01-30T16:08:33.696Z,1.60
2023-01-30T16:11:00.962Z,1.88
2023-01-30T16:13:28.962Z,1.80
2023-01-30T16:16:01.858Z,1.40
2023-01-30T16:18:36.421Z,1.58
2023-01-30T16:21:23.462Z,1.77
2023-01-30T16:24:01.011Z,2.03
2023-01-30T16:26:27.917Z,2.40
2023-01-30T16:29:01.228Z,2.95
2023-01-30T16:31:35.030Z,1.90
2023-01-30T16:34:01.966Z,1.75
2023-01-30T16:36:33.012Z,2.75
2023-01-30T16:39:00.275Z,1.90
2023-01-30T16:41:41.185Z,2.05
2023-01-30T16:44:20.962Z,2.00
2023-01-30T16:47:05.051Z,1.77
2023-01-30T16:49:41.001Z,2.20
2023-01-30T16:52:23.761Z,2.42
2023-01-30T16:54:53.328Z,1.85
2023-01-30T16:57:43.996Z,2.22
2023-01-30T17:00:29.787Z,1.70
2023-01-30T17:03:08.521Z,2.13
2023-01-30T17:05:40.031Z,1.83
2023-01-30T17:08:46.598Z,1.83
2023-01-30T17:11:37.776Z,2.13
2023-01-30T17:14:10.524Z,1.98
2023-01-30T17:16:37.471Z,2.83
2023-01-30T17:19:04.425Z,3.22
2023-01-30T17:21:45.329Z,2.05
2023-01-30T17:24:15.612Z,1.85
2023-01-30T17:26:42.615Z,2.20
2023-01-30T17:29:23.811Z,1.88
2023-01-30T17:31:56.811Z,2.15
2023-01-30T17:34:24.048Z,1.77
2023-01-30T17:36:52.167Z,2.00
2023-01-30T17:39:21.413Z,2.03
2023-01-30T17:41:51.603Z,2.70
2023-01-30T17:44:18.634Z,2.50
2023-01-30T17:46:47.661Z,2.13
2023-01-30T17:49:19.857Z,2.10
2023-01-30T17:51:47.157Z,2.47
2023-01-30T17:54:18.491Z,2.40
2023-01-30T17:56:47.610Z,2.63
2023-01-30T17:59:16.587Z,2.95
2023-01-30T18:01:44.743Z,3.92
2023-01-30T18:04:11.595Z,3.10
2023-01-30T18:06:40.662Z,2.60
2023-01-30T18:09:07.736Z,2.58
2023-01-30T18:11:34.433Z,2.45
2023-01-30T18:14:01.202Z,2.35
2023-01-30T18:16:32.952Z,3.00
2023-01-30T18:19:08.757Z,3.40
2023-01-30T18:21:38.305Z,3.20
2023-01-30T18:24:05.246Z,2.58
2023-01-30T18:26:32.458Z,3.55
2023-01-30T18:28:59.561Z,3.15
2023-01-30T18:31:29.561Z,3.10
2023-01-30T18:33:56.550Z,2.70
2023-01-30T18:36:23.834Z,2.70
2023-01-30T18:38:50.958Z,2.78
2023-01-30T18:41:19.699Z,2.63
2023-01-30T18:43:50.409Z,3.28
2023-01-30T18:46:18.176Z,3.03
2023-01-30T18:48:45.866Z,2.88
2023-01-30T18:51:15.005Z,3.33
2023-01-30T18:53:42.892Z,3.53
2023-01-30T18:56:11.438Z,3.08
2023-01-30T18:58:38.612Z,3.20
2023-01-30T19:01:14.227Z,3.47
2023-01-30T19:03:41.773Z,3.40
2023-01-30T19:06:11.705Z,3.63
2023-01-30T19:08:38.869Z,3.58
2023-01-30T19:11:28.019Z,3.33
2023-01-30T19:13:55.948Z,3.60
2023-01-30T19:16:24.531Z,3.28
2023-01-30T19:18:51.519Z,3.17
2023-01-30T19:21:18.351Z,3.05
2023-01-30T19:23:45.334Z,3.50
2023-01-30T19:26:12.666Z,4.03
2023-01-30T19:28:41.829Z,3.00
2023-01-30T19:31:09.696Z,2.92
2023-01-30T19:33:36.725Z,2.63
2023-01-30T19:36:17.914Z,3.40
2023-01-30T19:38:45.795Z,4.13
2023-01-30T19:41:18.241Z,4.30
2023-01-30T19:43:44.929Z,3.28
2023-01-30T19:46:12.332Z,3.25
2023-01-30T19:48:39.915Z,3.03
2023-01-30T19:51:26.690Z,3.20
2023-01-30T19:53:55.280Z,3.30
2023-01-30T19:56:24.977Z,2.97
2023-01-30T19:58:52.879Z,3.53
2023-01-30T20:01:21.393Z,3.20
2023-01-30T20:03:48.455Z,3.30
2023-01-30T20:06:26.807Z,3.45
2023-01-30T20:09:01.960Z,3.45
2023-01-30T20:11:30.183Z,3.55
2023-01-30T20:13:57.184Z,2.58
2023-01-30T20:16:25.716Z,2.60
2023-01-30T20:18:59.891Z,2.58
2023-01-30T20:21:27.486Z,2.53
2023-01-30T20:23:54.338Z,2.13
2023-01-30T20:26:23.687Z,2.20
2023-01-30T20:28:50.805Z,2.28
2023-01-30T20:31:20.386Z,2.90
2023-01-30T20:33:47.604Z,2.35
2023-01-30T20:36:16.641Z,2.92
2023-01-30T20:38:43.787Z,2.83
2023-01-30T20:41:19.333Z,2.45
2023-01-30T20:43:52.303Z,2.50
2023-01-30T20:46:22.478Z,2.28
2023-01-30T20:48:50.128Z,2.38
2023-01-30T20:51:39.608Z,2.05
2023-01-30T20:54:08.344Z,2.55
2023-01-30T20:56:37.471Z,1.90
2023-01-30T20:59:05.548Z,2.10
2023-01-30T21:01:32.847Z,2.08
2023-01-30T21:04:00.039Z,1.48
2023-01-30T21:06:37.395Z,1.80
2023-01-30T21:09:11.490Z,1.70
2023-01-30T21:11:38.362Z,1.77
2023-01-30T21:14:05.040Z,2.10
2023-01-30T21:16:33.978Z,2.83
2023-01-30T21:19:04.088Z,1.60
2023-01-30T21:21:34.294Z,2.22
2023-01-30T21:24:04.530Z,2.03
2023-01-30T21:26:33.478Z,1.98
2023-01-30T21:29:00.767Z,2.60
2023-01-30T21:31:29.592Z,1.33
2023-01-30T21:33:57.737Z,1.67
2023-01-30T21:36:25.102Z,2.13
2023-01-30T21:39:11.517Z,1.88
2023-01-30T21:41:52.212Z,1.92
2023-01-30T21:44:20.148Z,1.85
2023-01-30T21:46:48.547Z,1.48
2023-01-30T21:49:16.616Z,1.50
2023-01-30T21:51:45.032Z,1.88
2023-01-30T21:54:12.226Z,1.92
2023-01-30T21:56:40.136Z,1.52
2023-01-30T21:59:07.118Z,1.63
2023-01-30T22:01:35.750Z,1.48
2023-01-30T22:04:04.660Z,1.80
2023-01-30T22:06:31.695Z,1.55
2023-01-30T22:09:00.203Z,2.00
2023-01-30T22:11:27.670Z,2.35
2023-01-30T22:13:54.841Z,2.25
2023-01-30T22:16:24.454Z,1.85
2023-01-30T22:18:53.183Z,1.65
2023-01-30T22:21:21.039Z,2.42
2023-01-30T22:23:49.416Z,2.08
2023-01-30T22:26:17.835Z,1.85
2023-01-30T22:28:44.860Z,2.15
2023-01-30T22:31:11.744Z,2.60
2023-01-30T22:33:39.409Z,2.38
2023-01-30T22:36:07.676Z,1.70
2023-01-30T22:38:34.647Z,2.22
2023-01-30T22:41:03.273Z,2.22
2023-01-30T22:43:31.205Z,1.67
2023-01-30T22:46:00.728Z,2.40
2023-01-30T22:48:28.983Z,2.42
2023-01-30T22:51:03.750Z,2.58
2023-01-30T22:53:34.844Z,2.35
2023-01-30T22:56:03.255Z,2.08
2023-01-30T22:58:29.924Z,2.90
2023-01-30T23:01:04.136Z,3.95
2023-01-30T23:03:30.946Z,2.75
2023-01-30T23:05:59.010Z,2.25
2023-01-30T23:08:26.621Z,3.03
2023-01-30T23:10:53.334Z,3.40
2023-01-30T23:13:20.175Z,2.80
2023-01-30T23:15:47.044Z,2.92
2023-01-30T23:18:32.771Z,3.08
2023-01-30T23:20:59.982Z,2.47
2023-01-30T23:23:26.805Z,2.97
2023-01-30T23:25:53.413Z,2.15
2023-01-30T23:28:20.075Z,2.08
2023-01-30T23:30:46.782Z,2.20
2023-01-30T23:33:13.789Z,2.10
2023-01-30T23:35:40.493Z,2.42
2023-01-30T23:38:16.144Z,3.25
2023-01-30T23:40:44.259Z,2.33
2023-01-30T23:43:10.948Z,2.22
2023-01-30T23:45:38.874Z,2.10
2023-01-30T23:48:06.367Z,3.13
2023-01-30T23:50:37.677Z,2.55
2023-01-30T23:53:05.353Z,2.78
2023-01-30T23:55:32.629Z,2.20
2023-01-30T23:58:00.136Z,3.53
